This is the latest recevied weather packets stored in our database for station/object NUUKSIO. If no packets are shown the sender has not sent any weather packets the latest 10 day(s).
| Time | Temp. | Humidity | Pressure | Rain* | Wind** | Luminosity | Snow |
|---|---|---|---|---|---|---|---|
| 1788590480 | 11.11° C | 100% | 994.4 hPa | 0 mm | - | - | - |
| 1788588290 | 10.56° C | 100% | 994.2 hPa | 0 mm | - | - | - |
| 1788586880 | 10° C | 100% | 994.2 hPa | 0 mm | - | - | - |
| 1788584480 | 7.78° C | 100% | 994.3 hPa | 0 mm | - | - | - |
| 1788564289 | 9.44° C | 100% | 994.8 hPa | 0 mm | - | - | - |
| 1788549887 | 11.67° C | 99% | 996.4 hPa | 0 mm | - | - | - |
| 1788547277 | 11.67° C | 98% | 997 hPa | 0 mm | - | - | - |
| 1788543887 | 11.67° C | 95% | 997.2 hPa | 0 mm | - | - | - |
| 1788531886 | 15° C | 75% | 997.7 hPa | 0 mm | - | - | - |
| 1788530687 | 15.56° C | 70% | 997.7 hPa | 0 mm | - | - | - |
| 1788528285 | 15.56° C | 62% | 997.9 hPa | 0 mm | - | - | - |
| 1788526876 | 15.56° C | 68% | 997.8 hPa | 0 mm | - | - | - |
| 1788524686 | 15.56° C | 73% | 998 hPa | 0 mm | - | - | - |
| 1788520875 | 17.78° C | 53% | 997.8 hPa | 0 mm | - | - | - |
| 1788518685 | 17.22° C | 52% | 997.9 hPa | 0 mm | - | - | - |
| 1788517275 | 17.22° C | 56% | 998.1 hPa | 0 mm | - | - | - |
| 1788515085 | 16.67° C | 59% | 998.4 hPa | 0 mm | - | - | - |
| 1788513886 | 16.11° C | 62% | 998.5 hPa | 0 mm | - | - | - |
| 1788510285 | 14.44° C | 90% | 998.7 hPa | 0 mm | - | - | - |
| 1788508875 | 13.89° C | 99% | 998.9 hPa | 0 mm | - | - | - |
| 1788506685 | 12.78° C | 100% | 999.1 hPa | 0 mm | - | - | - |
| 1788505274 | 12.78° C | 100% | 999.5 hPa | 0 mm | - | - | - |
| 1788503084 | 11.67° C | 100% | 999.7 hPa | 0 mm | - | - | - |
| 1788499274 | 10.56° C | 100% | 1000.1 hPa | 0 mm | - | - | - |
| 1788497083 | 10° C | 100% | 1000.5 hPa | 0 mm | - | - | - |
* Rain latest hour (hover to see other rain measurements)
** Current wind speed in m/s (hover to see current wind gust speed)